Almond, Alabama
Current Conditions -  °F | °C
As of 8:35 PM on Thursday 27 Nov 2014 (Local Time) from KLGC Reporting Station
Clear Clear  
Wind Chill: 41°   Ceiling: Unl
Heat Index: 41°   Visibility: 10mi
Dew Point: 31°   Wind: 3mph
Humidity: 68%   Direction: 330°NNW
Pressure: 30.39"   Gusts: NA
Location:  33.1661°N, 85.5111°W
Report Text: KLGC 280235Z AUTO 33003KT 10SM CLR 05/M01 A3039 RMK AO2 T00481007
Loading
Personal Weather Stations






























Interactive Weather Map New forecast layout! Learn more

10-Day Weather Forecast

Advertisements
Track Severe Weather on mobile